ACV weather

California Redwood Coast-Humboldt County Airport
Arcata/Eureka, California, United States

Public forecast

Using degrees Fahrenheit for public forecast. Weather courtesy of forecast.io.

Current aviation weather report (METAR) for California Redwood Coast-Humboldt County Airport

Retrieved 2020/01/25 01:02 UTC (31 minutes ago):

KACV 250102Z AUTO 00000KT 4SM BR OVC090 12/10 A3008 RMK AO2 T01220100

Aviation forecast (TAF) for California Redwood Coast-Humboldt County Airport

Retrieved 2020-01-25 00:27 UTC (1 hour ago):

TAF COR KACV 242324Z 2500/2524 30003KT 4SM HZ FEW004 OVC100 FM250200 16004KT 3SM -RA BR OVC025 FM250900 13005KT 4SM BR OVC025 FM251600 12004KT 2SM -RA BR OVC050